Time;durP1;ratioP1;P1;durP2;ratioP2;P2;SDS_P1;SDS_P2;PMS_P1;PMS_P2;Temp;Humidity;BMP_temperature;BMP_pressure;BME280_temperature;BME280_humidity;BME280_pressure;Samples;Min_cycle;Max_cycle;Signal;HPM_P1;HPM_P2
2022/12/27 00:01:16;;;;;;;8.18;7.72;;;21.00;70.40;;;;;;5028996;28;20205;-40
2022/12/27 00:03:44;;;;;;;8.52;7.93;;;21.00;70.40;;;;;;5024881;28;20207;-41
2022/12/27 00:06:13;;;;;;;12.30;11.73;;;21.00;70.50;;;;;;5017611;28;20597;-40
2022/12/27 00:08:40;;;;;;;8.02;7.53;;;21.00;70.50;;;;;;5011711;28;20296;-41
2022/12/27 00:11:07;;;;;;;5.40;5.18;;;21.00;70.50;;;;;;5024425;28;20192;-40
2022/12/27 00:13:34;;;;;;;7.38;6.97;;;21.00;70.50;;;;;;5028158;28;20536;-41
2022/12/27 00:16:06;;;;;;;4.13;3.78;;;21.00;70.60;;;;;;5026208;28;20572;-40
2022/12/27 00:22:30;;;;;;;7.07;6.57;;;21.00;70.80;;;;;;5024599;28;20184;-41
2022/12/27 00:24:57;;;;;;;2.97;2.78;;;20.90;71.20;;;;;;5026426;28;20207;-41
2022/12/27 00:27:24;;;;;;;5.00;3.88;;;20.90;71.20;;;;;;5030028;28;20207;-41
2022/12/27 00:29:50;;;;;;;4.07;3.78;;;20.90;71.40;;;;;;5037479;28;20200;-40
2022/12/27 00:32:17;;;;;;;3.90;3.60;;;20.90;71.30;;;;;;5034669;28;20204;-41
2022/12/27 00:34:43;;;;;;;3.30;3.00;;;20.80;71.30;;;;;;5022486;28;20196;-40
2022/12/27 00:37:10;;;;;;;4.30;4.00;;;20.90;71.40;;;;;;5024603;28;20227;-41
2022/12/27 00:39:38;;;;;;;7.18;6.68;;;20.90;71.40;;;;;;5022458;28;20287;-41
2022/12/27 00:42:05;;;;;;;5.80;5.38;;;20.90;71.20;;;;;;5032495;28;20223;-40
2022/12/27 00:44:32;;;;;;;3.20;3.00;;;21.00;71.10;;;;;;5030005;28;20207;-40
2022/12/27 00:46:58;;;;;;;6.28;5.78;;;21.00;71.00;;;;;;5025423;28;20200;-40
2022/12/27 00:49:25;;;;;;;5.90;5.50;;;21.00;71.10;;;;;;5024531;28;20560;-41
2022/12/27 00:51:52;;;;;;;5.50;5.20;;;20.90;71.00;;;;;;5016292;28;20220;-40
2022/12/27 00:54:19;;;;;;;6.75;6.35;;;20.90;71.00;;;;;;5020140;28;20204;-40
2022/12/27 00:56:47;;;;;;;4.60;4.30;;;20.90;71.20;;;;;;5029695;28;20196;-41
2022/12/27 00:59:13;;;;;;;3.47;3.25;;;20.80;71.20;;;;;;5030491;28;20224;-40
2022/12/27 01:01:40;;;;;;;4.10;3.80;;;20.90;71.20;;;;;;5032528;28;20213;-40
2022/12/27 01:04:07;;;;;;;5.60;5.20;;;20.90;71.00;;;;;;5027268;28;20205;-40
2022/12/27 01:06:35;;;;;;;5.75;5.35;;;20.90;70.90;;;;;;5028907;28;20199;-40
2022/12/27 01:09:02;;;;;;;4.00;3.70;;;20.90;70.90;;;;;;5019545;28;20258;-40
2022/12/27 01:11:30;;;;;;;3.90;3.70;;;20.90;70.90;;;;;;5030538;28;20203;-41
2022/12/27 01:14:00;;;;;;;4.35;4.15;;;20.90;71.70;;;;;;5026058;28;20200;-41
2022/12/27 01:16:28;;;;;;;5.03;4.50;;;20.90;71.00;;;;;;5026231;28;20204;-41
2022/12/27 01:18:56;;;;;;;6.68;6.00;;;20.90;71.10;;;;;;5023750;28;20224;-40
2022/12/27 01:21:24;;;;;;;7.20;6.80;;;20.90;71.10;;;;;;5029070;28;20199;-40
2022/12/27 01:23:51;;;;;;;8.52;8.13;;;20.90;71.20;;;;;;5027028;28;20223;-41
2022/12/27 01:26:20;;;;;;;10.02;9.43;;;20.90;70.90;;;;;;5029788;28;20204;-41
2022/12/27 01:28:48;;;;;;;11.45;10.98;;;21.00;70.90;;;;;;5030026;28;20205;-41
2022/12/27 01:31:19;;;;;;;7.40;7.00;;;21.00;70.90;;;;;;5028556;28;20214;-40
2022/12/27 01:33:46;;;;;;;9.70;9.05;;;20.90;70.70;;;;;;5027393;28;20200;-40
2022/12/27 01:36:17;;;;;;;10.77;10.27;;;20.90;70.70;;;;;;5030711;28;20219;-40
2022/12/27 01:38:46;;;;;;;6.25;5.78;;;20.90;70.70;;;;;;5025588;28;20223;-41
2022/12/27 01:43:58;;;;;;;10.45;9.90;;;20.80;70.70;;;;;;5024231;28;20203;-40
2022/12/27 01:46:27;;;;;;;5.63;5.22;;;20.90;70.70;;;;;;5020376;28;20208;-41
2022/12/27 01:48:55;;;;;;;6.32;6.03;;;20.90;70.60;;;;;;5026353;28;20207;-41
2022/12/27 01:51:22;;;;;;;2.95;2.75;;;21.00;70.50;;;;;;5031263;28;20242;-43
2022/12/27 01:53:51;;;;;;;2.38;2.17;;;21.00;70.40;;;;;;5025402;28;20657;-40
2022/12/27 01:56:23;;;;;;;5.10;4.72;;;20.90;70.30;;;;;;5034515;28;20208;-41
2022/12/27 01:58:54;;;;;;;2.20;2.03;;;20.90;70.40;;;;;;5028599;28;20708;-40
2022/12/27 02:01:24;;;;;;;32.83;31.70;;;20.90;70.40;;;;;;5028212;28;20202;-40
2022/12/27 02:03:56;;;;;;;6.88;6.57;;;20.80;70.40;;;;;;5033505;28;20200;-41
2022/12/27 02:06:25;;;;;;;7.72;7.22;;;20.80;70.50;;;;;;5032906;28;20204;-41
2022/12/27 02:08:57;;;;;;;9.88;9.40;;;20.80;70.40;;;;;;5031505;28;20207;-40
2022/12/27 02:14:10;;;;;;;17.98;17.20;;;20.90;71.10;;;;;;5023241;28;20837;-41
2022/12/27 02:16:37;;;;;;;22.25;21.05;;;20.90;70.20;;;;;;5019226;28;20192;-41
2022/12/27 02:19:12;;;;;;;26.15;25.15;;;20.90;70.20;;;;;;5026853;28;20219;-40
2022/12/27 02:22:08;;;;;;;13.55;12.75;;;20.90;70.20;;;;;;5031075;28;20659;-41
2022/12/27 02:24:48;;;;;;;11.60;10.88;;;20.90;70.20;;;;;;5016503;28;20206;-41
2022/12/27 02:27:32;;;;;;;24.65;23.45;;;20.80;70.10;;;;;;5029035;28;20236;-41
2022/12/27 02:30:03;;;;;;;5.40;5.10;;;20.80;70.30;;;;;;5025607;28;20204;-40
2022/12/27 02:32:33;;;;;;;8.23;7.72;;;20.80;70.20;;;;;;5028618;28;20548;-41
2022/12/27 02:35:09;;;;;;;4.38;4.13;;;20.80;70.10;;;;;;5024261;28;20197;-40
2022/12/27 02:37:41;;;;;;;21.58;20.48;;;20.90;70.10;;;;;;5030038;28;20203;-41
2022/12/27 02:54:28;;;;;;;12.85;12.35;;;20.70;70.00;;;;;;5023367;28;20251;-41
2022/12/27 02:57:08;;;;;;;11.65;11.15;;;20.80;70.00;;;;;;5023095;28;20572;-40
2022/12/27 03:05:30;;;;;;;3.15;2.95;;;20.90;70.00;;;;;;5031484;28;20249;-40
2022/12/27 03:08:03;;;;;;;3.65;3.35;;;20.80;70.00;;;;;;5025147;28;20260;-40
2022/12/27 03:16:18;;;;;;;11.63;10.90;;;20.70;70.00;;;;;;5030178;28;20697;-40
2022/12/27 03:19:07;;;;;;;23.10;22.05;;;20.80;70.00;;;;;;5028724;28;20583;-40
2022/12/27 03:27:20;;;;;;;3.28;3.05;;;20.80;69.60;;;;;;4991090;28;20213;-40
2022/12/27 03:35:28;;;;;;;6.20;5.70;;;20.70;69.60;;;;;;5026861;28;20254;-40
2022/12/27 03:38:01;;;;;;;6.40;6.00;;;20.70;69.80;;;;;;5029040;28;20222;-40
2022/12/27 03:40:37;;;;;;;14.05;13.18;;;20.70;69.70;;;;;;5029036;28;20567;-41
2022/12/27 03:43:10;;;;;;;13.52;12.93;;;20.80;69.80;;;;;;5030934;28;20210;-40
2022/12/27 03:48:52;;;;;;;8.20;7.70;;;20.80;69.50;;;;;;5028309;28;20203;-40
2022/12/27 03:51:24;;;;;;;5.07;4.88;;;20.80;69.60;;;;;;5031993;28;20205;-40
2022/12/27 03:53:55;;;;;;;2.80;2.60;;;20.80;69.60;;;;;;5013671;28;20205;-40
2022/12/27 03:56:22;;;;;;;4.50;4.20;;;20.70;69.60;;;;;;5022837;28;21402;-40
2022/12/27 03:58:49;;;;;;;3.85;3.65;;;20.70;69.60;;;;;;5029090;28;20219;-41
2022/12/27 04:01:15;;;;;;;9.38;8.88;;;20.70;69.60;;;;;;5035116;28;20204;-40
2022/12/27 04:03:45;;;;;;;3.47;3.22;;;20.70;69.60;;;;;;5029596;28;20200;-42
2022/12/27 04:06:12;;;;;;;2.25;2.10;;;20.80;69.60;;;;;;5030419;28;20210;-40
2022/12/27 04:36:04;;;;;;;3.92;3.63;;;20.70;69.30;;;;;;5028543;28;20207;-41
2022/12/27 04:38:31;;;;;;;2.30;2.10;;;20.70;69.30;;;;;;5022295;28;20219;-41
2022/12/27 04:54:57;;;;;;;15.77;15.02;;;20.50;69.60;;;;;;5031827;28;20211;-40
2022/12/27 04:57:26;;;;;;;3.85;3.65;;;20.50;69.70;;;;;;5029966;28;20564;-40
2022/12/27 05:02:37;;;;;;;14.70;14.10;;;20.40;69.80;;;;;;5020673;28;20211;-40
2022/12/27 05:05:05;;;;;;;4.00;3.60;;;20.40;69.80;;;;;;5028829;28;20560;-40
2022/12/27 05:15:45;;;;;;;14.10;13.30;;;20.80;68.80;;;;;;5016981;28;20217;-40
2022/12/27 05:18:11;;;;;;;2.95;2.78;;;21.00;68.70;;;;;;5024727;28;20220;-40
2022/12/27 05:20:38;;;;;;;15.02;14.35;;;20.90;68.30;;;;;;5030087;28;20215;-40
2022/12/27 05:25:49;;;;;;;1.40;1.30;;;21.20;68.10;;;;;;5030148;28;20218;-40
2022/12/27 05:28:17;;;;;;;1.75;1.65;;;21.30;68.00;;;;;;5031605;28;20214;-40
2022/12/27 05:30:44;;;;;;;9.50;9.00;;;21.30;67.80;;;;;;5033332;28;20199;-40
2022/12/27 05:33:11;;;;;;;5.47;5.07;;;21.30;67.80;;;;;;5025248;28;20557;-40
2022/12/27 05:35:38;;;;;;;4.10;3.88;;;21.30;67.80;;;;;;5032885;28;20204;-40
2022/12/27 05:38:05;;;;;;;5.28;4.95;;;21.40;67.80;;;;;;5029269;28;20204;-40
2022/12/27 05:40:32;;;;;;;3.13;2.90;;;21.30;67.60;;;;;;5031310;28;20200;-40
2022/12/27 05:43:00;;;;;;;8.43;8.05;;;21.40;67.60;;;;;;5032257;28;20196;-40
2022/12/27 05:45:29;;;;;;;3.15;2.95;;;21.30;67.60;;;;;;5034243;28;20212;-40
2022/12/27 05:47:56;;;;;;;5.38;5.07;;;21.30;67.60;;;;;;5023228;28;20205;-40
2022/12/27 05:50:23;;;;;;;8.98;8.25;;;21.30;67.70;;;;;;5036140;28;20572;-40
2022/12/27 05:52:49;;;;;;;6.93;6.53;;;21.30;67.80;;;;;;5034520;28;20204;-40
2022/12/27 05:55:16;;;;;;;7.18;6.75;;;21.20;67.70;;;;;;5028280;28;20202;-40
2022/12/27 05:57:43;;;;;;;3.75;3.45;;;21.20;67.80;;;;;;5032065;28;20192;-40
2022/12/27 06:00:11;;;;;;;2.65;2.45;;;21.20;67.80;;;;;;5030788;28;20219;-40
2022/12/27 06:02:40;;;;;;;2.00;1.80;;;21.20;67.90;;;;;;5025881;28;20199;-40
2022/12/27 06:05:08;;;;;;;2.97;2.78;;;21.20;68.00;;;;;;5032274;28;20192;-40
2022/12/27 06:07:35;;;;;;;4.13;3.72;;;21.20;68.00;;;;;;5027692;28;20226;-40
2022/12/27 06:10:02;;;;;;;3.10;2.90;;;21.10;67.90;;;;;;5025120;28;20197;-40
2022/12/27 06:12:29;;;;;;;4.47;4.10;;;21.10;68.00;;;;;;5028858;28;20192;-40
2022/12/27 06:14:56;;;;;;;3.88;3.58;;;21.10;68.10;;;;;;5035318;28;20220;-40
2022/12/27 06:17:22;;;;;;;4.43;4.13;;;21.10;68.10;;;;;;5026616;28;20219;-40
2022/12/27 06:19:50;;;;;;;4.00;3.80;;;21.10;68.10;;;;;;5030894;28;20235;-40
2022/12/27 06:22:17;;;;;;;6.75;6.30;;;21.10;68.10;;;;;;5027975;28;20834;-40
2022/12/27 06:24:43;;;;;;;5.85;5.50;;;21.10;68.10;;;;;;5023124;28;20212;-40
2022/12/27 06:27:10;;;;;;;3.53;3.30;;;21.10;68.20;;;;;;5030009;28;20205;-40
2022/12/27 06:29:37;;;;;;;4.95;4.63;;;21.00;68.10;;;;;;5029197;28;20207;-40
2022/12/27 06:32:04;;;;;;;8.32;7.75;;;21.00;68.10;;;;;;5020677;28;20188;-40
2022/12/27 06:34:30;;;;;;;3.45;3.20;;;21.00;68.10;;;;;;5025239;28;20204;-40
2022/12/27 06:36:59;;;;;;;4.65;4.30;;;21.00;68.00;;;;;;5034338;28;20199;-40
2022/12/27 06:39:25;;;;;;;7.03;6.53;;;21.00;68.10;;;;;;5028254;28;20213;-40
2022/12/27 06:41:54;;;;;;;13.05;12.35;;;21.00;68.10;;;;;;5035852;28;20192;-40
2022/12/27 06:44:20;;;;;;;5.93;5.53;;;21.00;68.10;;;;;;5034627;28;20237;-40
2022/12/27 06:46:47;;;;;;;6.13;5.75;;;21.00;68.10;;;;;;5031893;28;21861;-40
2022/12/27 06:49:14;;;;;;;8.27;7.88;;;21.00;68.00;;;;;;5031076;28;20628;-40
2022/12/27 06:51:40;;;;;;;13.65;13.05;;;21.00;67.90;;;;;;5035330;28;20203;-40
2022/12/27 06:54:09;;;;;;;5.05;4.75;;;21.10;68.00;;;;;;5034927;28;20197;-40
2022/12/27 06:56:35;;;;;;;10.77;10.32;;;21.10;68.00;;;;;;5033229;28;20200;-40
2022/12/27 06:59:02;;;;;;;7.82;7.45;;;21.10;67.90;;;;;;5031952;28;20220;-40
2022/12/27 07:01:29;;;;;;;5.70;5.20;;;21.10;67.90;;;;;;5030544;28;20203;-40
2022/12/27 07:03:57;;;;;;;2.97;2.78;;;21.10;67.90;;;;;;5034537;28;20204;-41
2022/12/27 07:06:27;;;;;;;5.22;5.00;;;21.10;67.90;;;;;;5033553;28;20231;-40
2022/12/27 07:08:55;;;;;;;9.68;9.10;;;21.00;67.80;;;;;;5021382;28;20193;-41
2022/12/27 07:11:24;;;;;;;15.45;14.38;;;21.00;67.90;;;;;;5029952;28;20691;-40
2022/12/27 07:13:52;;;;;;;7.00;6.60;;;21.00;68.10;;;;;;5027678;28;20197;-40
2022/12/27 07:16:22;;;;;;;13.75;12.80;;;20.90;68.10;;;;;;5025539;28;20191;-40
2022/12/27 07:18:49;;;;;;;5.93;5.57;;;20.90;68.30;;;;;;5029612;28;20580;-41
2022/12/27 07:21:17;;;;;;;6.05;5.75;;;20.80;68.30;;;;;;5032600;28;20560;-40
2022/12/27 07:23:44;;;;;;;9.15;8.63;;;20.80;68.30;;;;;;5024676;28;20201;-40
2022/12/27 07:26:13;;;;;;;5.55;5.22;;;20.80;68.50;;;;;;5029325;28;20207;-40
2022/12/27 07:28:41;;;;;;;9.15;8.73;;;20.80;68.40;;;;;;5029464;28;20203;-41
2022/12/27 07:31:09;;;;;;;15.05;14.43;;;20.80;68.40;;;;;;5024605;28;20200;-40
2022/12/27 07:33:35;;;;;;;13.23;12.63;;;20.90;68.30;;;;;;5028799;28;20307;-40
2022/12/27 07:36:05;;;;;;;10.85;10.40;;;20.90;68.10;;;;;;5025379;28;20618;-40
2022/12/27 07:38:32;;;;;;;21.05;20.27;;;21.00;68.00;;;;;;5027241;28;20193;-40
2022/12/27 07:40:59;;;;;;;16.10;15.48;;;21.00;67.90;;;;;;5031051;28;20686;-40
2022/12/27 07:43:28;;;;;;;16.98;16.33;;;21.00;67.70;;;;;;5029197;28;20695;-41
2022/12/27 07:46:02;;;;;;;35.75;34.45;;;21.00;67.60;;;;;;5027377;28;20686;-40
2022/12/27 07:48:29;;;;;;;38.88;37.38;;;21.10;67.60;;;;;;5022277;28;20197;-41
2022/12/27 07:50:56;;;;;;;63.63;61.05;;;21.00;67.50;;;;;;5025941;28;20208;-40
2022/12/27 07:53:22;;;;;;;35.08;33.67;;;21.10;67.50;;;;;;5027734;28;20196;-41
2022/12/27 07:55:50;;;;;;;22.85;21.95;;;21.20;67.60;;;;;;5028113;28;20203;-40
2022/12/27 07:58:17;;;;;;;38.78;37.40;;;21.10;67.40;;;;;;5024652;28;20208;-41
2022/12/27 08:00:45;;;;;;;32.53;31.33;;;21.20;67.50;;;;;;5028148;28;20710;-41
2022/12/27 08:03:13;;;;;;;43.90;42.30;;;21.20;67.50;;;;;;5029425;28;20193;-41
2022/12/27 08:05:45;;;;;;;30.17;28.85;;;21.10;67.40;;;;;;5031160;28;20667;-40
2022/12/27 08:08:14;;;;;;;36.38;34.67;;;21.10;67.40;;;;;;5024016;28;21657;-40
2022/12/27 08:10:41;;;;;;;10.60;10.02;;;21.10;67.50;;;;;;5024305;28;20210;-40
2022/12/27 08:13:07;;;;;;;7.43;6.85;;;21.10;67.50;;;;;;5020538;28;20660;-41
2022/12/27 08:15:34;;;;;;;6.30;5.90;;;21.10;68.40;;;;;;5023971;28;20198;-41
2022/12/27 08:18:01;;;;;;;9.40;9.00;;;21.10;67.60;;;;;;5026123;28;20245;-40
2022/12/27 08:20:29;;;;;;;29.80;28.40;;;21.00;67.60;;;;;;5023199;28;20247;-40
2022/12/27 08:22:56;;;;;;;25.65;24.75;;;21.00;67.60;;;;;;5029133;28;20629;-40
2022/12/27 08:25:23;;;;;;;41.53;40.13;;;21.00;67.50;;;;;;5024613;28;20206;-41
2022/12/27 08:27:49;;;;;;;46.08;44.35;;;21.00;67.60;;;;;;5021380;28;20687;-40
2022/12/27 08:30:16;;;;;;;33.35;31.92;;;21.00;67.60;;;;;;5018764;28;20204;-40
2022/12/27 08:32:43;;;;;;;39.80;38.28;;;21.00;67.60;;;;;;5018489;28;20203;-40
2022/12/27 08:35:10;;;;;;;39.38;37.72;;;21.00;67.50;;;;;;5014071;28;20206;-41
2022/12/27 08:37:38;;;;;;;36.95;35.30;;;21.00;68.10;;;;;;5030417;28;20200;-41
2022/12/27 08:40:05;;;;;;;20.50;19.52;;;21.00;68.00;;;;;;5021880;28;20218;-41
2022/12/27 08:42:32;;;;;;;11.82;11.23;;;21.00;68.30;;;;;;5023021;28;20209;-41
2022/12/27 08:44:59;;;;;;;3.28;3.03;;;21.00;68.50;;;;;;5026088;28;20204;-41
2022/12/27 08:47:25;;;;;;;11.73;11.15;;;21.00;68.90;;;;;;5028651;28;20561;-40
2022/12/27 08:49:52;;;;;;;14.40;13.88;;;21.00;68.80;;;;;;5031842;28;20611;-40
2022/12/27 08:52:19;;;;;;;20.40;19.40;;;21.00;68.80;;;;;;5025488;28;20204;-40
2022/12/27 08:54:47;;;;;;;13.07;12.40;;;21.10;69.10;;;;;;5027666;28;20191;-41
2022/12/27 08:57:13;;;;;;;16.60;15.90;;;21.00;68.90;;;;;;5032653;28;20211;-41
2022/12/27 08:59:40;;;;;;;25.05;24.08;;;21.00;68.90;;;;;;5028214;28;20219;-41
2022/12/27 09:02:07;;;;;;;21.02;20.10;;;21.00;69.00;;;;;;5023764;28;20197;-40
2022/12/27 09:04:33;;;;;;;32.67;31.33;;;21.10;69.10;;;;;;5031607;28;20543;-40
2022/12/27 09:07:00;;;;;;;14.52;13.82;;;21.10;69.00;;;;;;5027511;28;20211;-41
2022/12/27 09:09:27;;;;;;;27.05;25.63;;;21.10;68.90;;;;;;5023851;28;20201;-41
2022/12/27 09:11:55;;;;;;;38.60;36.65;;;21.10;68.80;;;;;;5022087;28;20205;-40
2022/12/27 09:14:22;;;;;;;9.57;9.18;;;21.00;68.60;;;;;;5033264;28;20196;-40
2022/12/27 09:16:48;;;;;;;14.60;13.85;;;21.00;68.60;;;;;;5028383;28;20298;-40
2022/12/27 09:19:15;;;;;;;18.15;16.75;;;21.10;68.70;;;;;;5028656;28;20228;-40
2022/12/27 09:21:42;;;;;;;52.47;50.53;;;21.00;68.50;;;;;;5031057;28;20205;-40
2022/12/27 09:24:11;;;;;;;25.95;24.95;;;21.10;68.50;;;;;;5030234;28;20191;-40
2022/12/27 09:26:37;;;;;;;57.08;54.80;;;21.10;68.50;;;;;;5032648;28;20201;-41
2022/12/27 09:29:06;;;;;;;37.92;36.50;;;21.10;68.50;;;;;;5031440;28;20220;-40
2022/12/27 09:31:33;;;;;;;55.33;53.38;;;21.10;68.40;;;;;;5035315;28;20193;-40
2022/12/27 09:34:00;;;;;;;40.15;38.70;;;21.10;68.40;;;;;;5035511;28;20195;-40
2022/12/27 09:36:28;;;;;;;56.88;54.78;;;21.10;68.40;;;;;;5037161;28;20191;-40
2022/12/27 09:38:57;;;;;;;38.47;37.10;;;21.00;68.20;;;;;;5029081;28;20204;-40
2022/12/27 09:41:36;;;;;;;10.73;10.23;;;21.00;68.20;;;;;;5032574;28;20226;-40
2022/12/27 09:44:10;;;;;;;24.17;23.25;;;21.10;68.40;;;;;;5038074;28;20199;-41
2022/12/27 09:46:42;;;;;;;18.98;18.17;;;21.10;68.40;;;;;;5037460;28;20198;-41
2022/12/27 09:49:13;;;;;;;29.55;28.25;;;21.00;68.20;;;;;;5026021;28;20197;-41
2022/12/27 09:51:48;;;;;;;44.33;42.40;;;21.00;68.30;;;;;;5032726;28;20211;-41
2022/12/27 09:54:21;;;;;;;23.15;22.08;;;21.00;68.30;;;;;;5018020;28;20192;-40
2022/12/27 09:56:48;;;;;;;20.63;19.85;;;21.00;68.20;;;;;;5032710;28;20216;-40
2022/12/27 09:59:24;;;;;;;9.82;9.38;;;21.00;68.20;;;;;;5039061;28;20207;-40
2022/12/27 10:01:51;;;;;;;14.00;13.18;;;21.10;68.30;;;;;;5026413;28;20199;-40
2022/12/27 10:04:19;;;;;;;7.25;6.95;;;21.00;68.20;;;;;;5024798;28;20593;-41
2022/12/27 10:07:08;;;;;;;19.80;19.00;;;21.00;68.30;;;;;;5022803;28;20201;-41
2022/12/27 10:09:51;;;;;;;37.60;36.00;;;21.00;69.10;;;;;;5022679;28;20197;-40
2022/12/27 10:12:34;;;;;;;41.50;40.03;;;21.00;68.30;;;;;;5029495;28;20196;-40
2022/12/27 10:15:18;;;;;;;47.88;45.83;;;21.00;68.40;;;;;;5022100;28;20195;-41
2022/12/27 10:17:54;;;;;;;43.10;41.35;;;21.00;68.30;;;;;;5025724;28;20611;-41
2022/12/27 10:20:32;;;;;;;58.63;56.55;;;21.00;68.30;;;;;;5046098;28;20226;-41
2022/12/27 10:23:03;;;;;;;39.72;38.10;;;21.00;68.40;;;;;;5031524;28;20189;-41
2022/12/27 10:25:31;;;;;;;18.17;17.48;;;21.00;68.40;;;;;;5032793;28;20662;-40
2022/12/27 10:28:10;;;;;;;7.82;7.32;;;21.00;68.40;;;;;;5032830;28;20193;-40
2022/12/27 10:30:40;;;;;;;11.32;10.63;;;21.00;68.40;;;;;;5030409;28;20590;-41
2022/12/27 10:33:10;;;;;;;14.13;13.55;;;21.00;68.30;;;;;;5029526;28;20201;-40
2022/12/27 10:35:37;;;;;;;15.07;14.38;;;21.00;68.50;;;;;;5033852;28;20188;-40
2022/12/27 10:38:10;;;;;;;12.55;11.57;;;21.00;68.90;;;;;;5016609;28;20201;-40
2022/12/27 10:40:42;;;;;;;20.45;19.30;;;21.00;67.90;;;;;;5032134;28;20219;-41
2022/12/27 10:43:18;;;;;;;26.10;24.98;;;20.30;66.80;;;;;;5037063;28;20192;-41
2022/12/27 10:45:46;;;;;;;35.70;34.08;;;20.40;68.50;;;;;;5027376;28;20219;-40
2022/12/27 10:48:21;;;;;;;51.17;49.08;;;20.70;68.70;;;;;;5036405;28;20198;-40
2022/12/27 10:50:53;;;;;;;59.97;57.80;;;20.70;68.60;;;;;;5035606;28;20199;-41
2022/12/27 10:53:35;;;;;;;38.88;37.17;;;20.90;68.90;;;;;;5025303;28;20218;-40
2022/12/27 10:56:27;;;;;;;34.08;32.60;;;21.20;69.10;;;;;;5031826;28;20201;-40
2022/12/27 10:58:55;;;;;;;5.90;4.88;;;21.50;68.90;;;;;;5016122;28;20457;-45
2022/12/27 11:01:25;;;;;;;4.55;4.18;;;21.70;68.40;;;;;;5023163;28;20304;-45
2022/12/27 11:04:08;;;;;;;55.90;53.88;;;21.80;68.40;;;;;;5024319;28;20242;-44
2022/12/27 11:06:34;;;;;;;3.17;2.85;;;21.90;68.10;;;;;;5021882;28;20221;-45
2022/12/27 11:09:19;;;;;;;3.90;3.13;;;22.00;67.90;;;;;;5017398;28;20199;-44
2022/12/27 11:11:46;;;;;;;5.07;3.22;;;22.10;67.70;;;;;;5025214;28;20288;-45
2022/12/27 11:14:17;;;;;;;3.58;3.28;;;22.10;67.40;;;;;;5030630;28;20211;-45
2022/12/27 11:16:45;;;;;;;4.40;2.63;;;22.20;67.40;;;;;;5027901;28;20563;-45
2022/12/27 11:19:23;;;;;;;5.03;2.72;;;22.30;67.30;;;;;;5023180;28;20222;-44
2022/12/27 11:21:52;;;;;;;2.25;2.00;;;22.40;67.10;;;;;;5026350;28;20231;-45
2022/12/27 11:24:21;;;;;;;1.92;1.42;;;22.50;67.00;;;;;;5019025;28;20303;-45
2022/12/27 11:26:54;;;;;;;1.67;1.58;;;22.60;66.80;;;;;;5014772;28;20213;-45
2022/12/27 11:29:23;;;;;;;2.00;1.90;;;22.60;66.60;;;;;;5031588;28;20203;-45
2022/12/27 11:31:52;;;;;;;3.15;2.95;;;22.70;66.60;;;;;;5029010;28;20855;-45
2022/12/27 11:34:25;;;;;;;2.50;2.05;;;22.70;66.40;;;;;;5027087;28;20199;-46
2022/12/27 11:36:55;;;;;;;2.13;1.92;;;22.70;66.40;;;;;;5022443;28;20204;-49
2022/12/27 11:39:43;;;;;;;2.47;2.28;;;22.70;66.50;;;;;;5023923;28;20571;-49
2022/12/27 11:42:18;;;;;;;2.60;1.63;;;22.70;66.50;;;;;;5027362;28;20220;-45
2022/12/27 11:44:50;;;;;;;2.33;1.87;;;22.70;66.60;;;;;;5026438;28;20580;-46
2022/12/27 11:47:29;;;;;;;3.38;3.10;;;22.70;66.60;;;;;;5025249;28;20959;-46
2022/12/27 11:50:05;;;;;;;2.85;2.05;;;22.50;66.70;;;;;;5031031;28;20203;-47
2022/12/27 11:52:48;;;;;;;2.80;2.20;;;22.40;67.30;;;;;;5029080;28;20205;-46
2022/12/27 11:55:31;;;;;;;2.13;1.95;;;22.50;67.20;;;;;;5027693;28;20205;-46
2022/12/27 11:58:17;;;;;;;2.17;1.98;;;22.50;67.00;;;;;;5030317;28;20218;-45
2022/12/27 12:00:51;;;;;;;3.88;3.58;;;22.50;67.00;;;;;;5030310;28;20639;-46
2022/12/27 12:04:00;;;;;;;3.28;2.30;;;22.50;67.10;;;;;;5013313;28;20202;-46
2022/12/27 12:06:38;;;;;;;2.28;1.98;;;22.50;67.10;;;;;;5011906;28;20727;-45
2022/12/27 12:09:41;;;;;;;3.65;3.35;;;22.50;67.10;;;;;;5023512;28;20194;-44
2022/12/27 12:12:38;;;;;;;3.03;2.83;;;22.50;67.10;;;;;;5023687;28;20197;-47
2022/12/27 12:15:49;;;;;;;1.83;1.70;;;22.50;67.20;;;;;;5024755;28;20197;-46
2022/12/27 12:18:44;;;;;;;3.90;3.60;;;22.50;67.20;;;;;;4998306;28;20192;-45
2022/12/27 12:21:25;;;;;;;2.75;2.30;;;22.50;67.20;;;;;;5021328;28;20235;-45
2022/12/27 12:24:25;;;;;;;2.95;2.65;;;22.50;67.20;;;;;;5032855;28;20284;-46
2022/12/27 12:27:05;;;;;;;2.45;2.25;;;22.50;67.10;;;;;;5030716;28;20663;-46
2022/12/27 12:29:55;;;;;;;3.08;2.15;;;22.60;67.10;;;;;;5030529;28;20564;-47
2022/12/27 12:32:34;;;;;;;1.65;1.52;;;22.50;67.80;;;;;;5028828;28;20657;-46
2022/12/27 12:35:27;;;;;;;3.53;3.33;;;22.60;67.10;;;;;;5032551;28;20217;-47
2022/12/27 12:38:05;;;;;;;3.35;2.80;;;22.60;67.10;;;;;;5023745;28;20205;-45
2022/12/27 12:40:46;;;;;;;2.13;2.00;;;22.60;67.00;;;;;;5024247;28;20243;-46
2022/12/27 12:43:30;;;;;;;2.58;1.90;;;22.60;67.20;;;;;;5030163;28;20192;-45
2022/12/27 12:46:08;;;;;;;2.75;2.55;;;22.60;67.30;;;;;;5026133;28;20213;-45
2022/12/27 12:49:04;;;;;;;4.25;2.97;;;22.60;67.30;;;;;;5029922;28;20207;-47
2022/12/27 12:51:54;;;;;;;2.90;2.42;;;22.60;67.50;;;;;;5025853;28;20188;-45
2022/12/27 12:54:37;;;;;;;1.95;1.45;;;22.70;67.30;;;;;;5005973;28;20204;-45
2022/12/27 12:57:15;;;;;;;2.75;2.10;;;22.70;67.10;;;;;;5025282;28;20204;-44
2022/12/27 13:00:14;;;;;;;3.17;2.45;;;22.80;67.10;;;;;;5035222;28;20215;-45
2022/12/27 13:03:10;;;;;;;2.70;2.50;;;22.80;67.00;;;;;;5028944;28;20207;-45
2022/12/27 13:05:45;;;;;;;4.05;3.70;;;22.80;67.00;;;;;;5027472;28;20215;-45
2022/12/27 13:08:22;;;;;;;2.10;1.90;;;22.80;67.10;;;;;;5022953;28;20217;-45
2022/12/27 13:11:12;;;;;;;2.47;2.28;;;22.80;67.10;;;;;;5027987;28;20216;-44
2022/12/27 13:13:54;;;;;;;3.63;3.33;;;22.80;67.20;;;;;;5029208;28;20223;-45
2022/12/27 13:16:32;;;;;;;4.20;3.90;;;22.80;67.20;;;;;;5023182;28;20467;-46
2022/12/27 13:19:13;;;;;;;5.53;4.20;;;22.80;67.10;;;;;;5028258;28;20456;-46
2022/12/27 13:21:54;;;;;;;2.72;2.47;;;22.80;67.20;;;;;;5027093;28;20569;-47
2022/12/27 13:24:31;;;;;;;4.33;4.03;;;22.80;67.30;;;;;;5020836;28;20681;-47
2022/12/27 13:27:04;;;;;;;3.45;3.15;;;22.90;67.40;;;;;;5031529;28;20831;-45
2022/12/27 13:29:55;;;;;;;2.97;2.25;;;22.80;67.30;;;;;;5030754;28;20189;-45
2022/12/27 13:32:35;;;;;;;4.03;3.38;;;22.80;67.60;;;;;;5033087;28;20288;-46
2022/12/27 13:35:17;;;;;;;4.47;4.07;;;22.80;67.70;;;;;;5026083;28;20200;-46
2022/12/27 13:37:56;;;;;;;5.60;5.20;;;22.80;67.70;;;;;;5024784;28;20463;-45
2022/12/27 13:41:03;;;;;;;6.13;5.67;;;22.80;67.80;;;;;;5022536;28;22192;-46
2022/12/27 13:43:53;;;;;;;4.10;3.70;;;22.70;67.80;;;;;;5023101;28;20922;-46
2022/12/27 13:46:49;;;;;;;5.97;5.57;;;22.70;67.90;;;;;;5028524;28;20648;-51
2022/12/27 13:49:41;;;;;;;4.85;4.45;;;22.70;68.00;;;;;;5031034;28;20486;-45
2022/12/27 13:52:18;;;;;;;8.20;7.68;;;22.70;67.90;;;;;;5032084;28;20201;-46
2022/12/27 13:55:02;;;;;;;8.73;8.20;;;22.70;68.10;;;;;;5032303;28;20208;-45
2022/12/27 13:58:04;;;;;;;15.27;14.07;;;22.70;68.20;;;;;;5040040;28;20468;-46
2022/12/27 14:00:40;;;;;;;29.35;28.00;;;22.70;68.20;;;;;;5031323;28;20520;-46
2022/12/27 14:03:33;;;;;;;198.07;191.07;;;22.70;68.10;;;;;;5026710;28;20216;-46
2022/12/27 14:06:16;;;;;;;116.20;112.03;;;22.70;68.20;;;;;;5030664;28;20919;-44
2022/12/27 14:09:24;;;;;;;11.43;10.73;;;22.70;68.40;;;;;;5023405;28;20205;-46
2022/12/27 14:12:06;;;;;;;13.85;12.38;;;22.70;68.40;;;;;;5029818;28;20295;-41
2022/12/27 14:14:36;;;;;;;6.30;5.60;;;22.20;67.30;;;;;;5029339;28;20199;-42
2022/12/27 14:17:22;;;;;;;5.90;5.10;;;22.10;69.00;;;;;;5032982;28;20193;-41
2022/12/27 14:20:04;;;;;;;6.50;5.90;;;22.20;69.10;;;;;;5032665;28;20303;-41
2022/12/27 14:22:59;;;;;;;111.07;106.60;;;22.30;69.00;;;;;;5024481;28;20207;-41
2022/12/27 14:25:55;;;;;;;19.92;18.70;;;22.40;69.30;;;;;;5028937;28;20200;-41
2022/12/27 14:28:55;;;;;;;107.82;103.43;;;22.40;69.30;;;;;;5037655;28;20191;-40
2022/12/27 14:31:48;;;;;;;27.98;26.27;;;22.40;69.30;;;;;;5022185;28;20212;-41
2022/12/27 14:34:40;;;;;;;10.50;9.60;;;22.40;69.20;;;;;;5025529;28;20201;-41
2022/12/27 14:37:36;;;;;;;10.00;8.00;;;22.40;69.20;;;;;;5022832;28;20199;-41
2022/12/27 14:40:27;;;;;;;16.13;4.75;;;22.40;69.10;;;;;;5029432;28;20200;-45
2022/12/27 14:43:18;;;;;;;8.77;7.80;;;22.40;69.20;;;;;;4980393;28;20439;-45
2022/12/27 14:46:29;;;;;;;12.38;11.27;;;22.40;69.20;;;;;;5037506;28;20559;-46
2022/12/27 14:49:42;;;;;;;99.10;95.27;;;22.60;69.20;;;;;;5020900;28;20211;-45
2022/12/27 14:52:45;;;;;;;81.28;75.82;;;22.60;68.90;;;;;;5036695;28;20463;-46
2022/12/27 14:55:35;;;;;;;34.83;33.35;;;22.70;68.90;;;;;;5026718;28;20573;-46